sensor_id;sensor_type;location;lat;lon;timestamp;P1;durP1;ratioP1;P2;durP2;ratioP2
20144;SDS011;10233;50.814;6.590;2023-12-20T00:00:30;1.15;;;0.75;;
20144;SDS011;10233;50.814;6.590;2023-12-20T00:01:31;1.40;;;0.77;;
20144;SDS011;10233;50.814;6.590;2023-12-20T00:02:31;2.03;;;0.82;;
20144;SDS011;10233;50.814;6.590;2023-12-20T00:03:32;2.07;;;1.17;;
20144;SDS011;10233;50.814;6.590;2023-12-20T00:04:32;1.90;;;0.60;;
20144;SDS011;10233;50.814;6.590;2023-12-20T00:05:32;1.20;;;0.80;;
20144;SDS011;10233;50.814;6.590;2023-12-20T00:06:33;2.07;;;0.90;;
20144;SDS011;10233;50.814;6.590;2023-12-20T00:07:33;1.87;;;0.73;;
20144;SDS011;10233;50.814;6.590;2023-12-20T00:08:34;0.63;;;0.60;;
20144;SDS011;10233;50.814;6.590;2023-12-20T00:09:34;1.98;;;0.95;;
20144;SDS011;10233;50.814;6.590;2023-12-20T00:10:35;1.93;;;0.90;;
20144;SDS011;10233;50.814;6.590;2023-12-20T00:11:35;1.77;;;0.93;;
20144;SDS011;10233;50.814;6.590;2023-12-20T00:12:35;1.80;;;0.80;;
20144;SDS011;10233;50.814;6.590;2023-12-20T00:13:36;0.77;;;0.60;;
20144;SDS011;10233;50.814;6.590;2023-12-20T00:14:36;1.10;;;0.70;;
20144;SDS011;10233;50.814;6.590;2023-12-20T00:15:37;0.73;;;0.73;;
20144;SDS011;10233;50.814;6.590;2023-12-20T00:16:37;0.93;;;0.60;;
20144;SDS011;10233;50.814;6.590;2023-12-20T00:17:38;1.00;;;0.40;;
20144;SDS011;10233;50.814;6.590;2023-12-20T00:18:38;0.67;;;0.50;;
20144;SDS011;10233;50.814;6.590;2023-12-20T00:19:38;1.23;;;0.52;;
20144;SDS011;10233;50.814;6.590;2023-12-20T00:20:39;0.63;;;0.47;;
20144;SDS011;10233;50.814;6.590;2023-12-20T00:21:40;1.10;;;1.00;;
20144;SDS011;10233;50.814;6.590;2023-12-20T00:22:40;0.87;;;0.67;;
20144;SDS011;10233;50.814;6.590;2023-12-20T00:23:42;1.60;;;1.02;;
20144;SDS011;10233;50.814;6.590;2023-12-20T00:24:42;1.27;;;0.93;;
20144;SDS011;10233;50.814;6.590;2023-12-20T00:25:43;2.33;;;1.33;;
20144;SDS011;10233;50.814;6.590;2023-12-20T00:26:43;1.47;;;1.10;;
20144;SDS011;10233;50.814;6.590;2023-12-20T00:27:43;1.95;;;1.20;;
20144;SDS011;10233;50.814;6.590;2023-12-20T00:28:44;2.37;;;1.17;;
20144;SDS011;10233;50.814;6.590;2023-12-20T00:29:44;1.55;;;0.88;;
20144;SDS011;10233;50.814;6.590;2023-12-20T00:30:48;1.70;;;1.00;;
20144;SDS011;10233;50.814;6.590;2023-12-20T00:31:48;1.57;;;0.93;;
20144;SDS011;10233;50.814;6.590;2023-12-20T00:32:48;1.25;;;0.90;;
20144;SDS011;10233;50.814;6.590;2023-12-20T00:33:49;2.37;;;1.30;;
20144;SDS011;10233;50.814;6.590;2023-12-20T00:34:49;2.47;;;0.98;;
20144;SDS011;10233;50.814;6.590;2023-12-20T00:35:50;1.63;;;1.53;;
20144;SDS011;10233;50.814;6.590;2023-12-20T00:36:50;1.95;;;1.02;;
20144;SDS011;10233;50.814;6.590;2023-12-20T00:37:51;2.70;;;1.23;;
20144;SDS011;10233;50.814;6.590;2023-12-20T00:38:51;3.43;;;1.30;;
20144;SDS011;10233;50.814;6.590;2023-12-20T00:39:52;2.97;;;1.23;;
20144;SDS011;10233;50.814;6.590;2023-12-20T00:40:52;2.83;;;1.50;;
20144;SDS011;10233;50.814;6.590;2023-12-20T00:41:52;2.65;;;1.38;;
20144;SDS011;10233;50.814;6.590;2023-12-20T00:42:53;3.73;;;1.33;;
20144;SDS011;10233;50.814;6.590;2023-12-20T00:43:53;2.08;;;1.15;;
20144;SDS011;10233;50.814;6.590;2023-12-20T00:44:54;1.60;;;1.10;;
20144;SDS011;10233;50.814;6.590;2023-12-20T00:45:54;3.90;;;1.27;;
20144;SDS011;10233;50.814;6.590;2023-12-20T00:46:55;2.17;;;1.30;;
20144;SDS011;10233;50.814;6.590;2023-12-20T00:47:56;5.37;;;1.10;;
20144;SDS011;10233;50.814;6.590;2023-12-20T00:48:56;2.60;;;1.37;;
20144;SDS011;10233;50.814;6.590;2023-12-20T00:49:57;3.80;;;1.60;;
20144;SDS011;10233;50.814;6.590;2023-12-20T00:50:57;1.27;;;0.98;;
20144;SDS011;10233;50.814;6.590;2023-12-20T00:51:58;1.83;;;1.07;;
20144;SDS011;10233;50.814;6.590;2023-12-20T00:52:58;2.22;;;1.30;;
20144;SDS011;10233;50.814;6.590;2023-12-20T00:53:59;4.80;;;1.93;;
20144;SDS011;10233;50.814;6.590;2023-12-20T00:54:59;2.00;;;1.30;;
20144;SDS011;10233;50.814;6.590;2023-12-20T00:56:00;3.20;;;1.50;;
20144;SDS011;10233;50.814;6.590;2023-12-20T00:57:00;8.50;;;2.00;;
20144;SDS011;10233;50.814;6.590;2023-12-20T00:58:01;3.53;;;1.23;;
20144;SDS011;10233;50.814;6.590;2023-12-20T00:59:01;2.07;;;1.33;;
20144;SDS011;10233;50.814;6.590;2023-12-20T01:00:01;6.20;;;2.30;;
20144;SDS011;10233;50.814;6.590;2023-12-20T01:01:02;3.33;;;1.48;;
20144;SDS011;10233;50.814;6.590;2023-12-20T01:02:03;3.07;;;1.67;;
20144;SDS011;10233;50.814;6.590;2023-12-20T01:03:03;2.83;;;1.92;;
20144;SDS011;10233;50.814;6.590;2023-12-20T01:04:04;3.53;;;1.97;;
20144;SDS011;10233;50.814;6.590;2023-12-20T01:05:04;3.20;;;1.70;;
20144;SDS011;10233;50.814;6.590;2023-12-20T01:06:05;4.30;;;1.85;;
20144;SDS011;10233;50.814;6.590;2023-12-20T01:07:06;3.53;;;1.90;;
20144;SDS011;10233;50.814;6.590;2023-12-20T01:08:06;6.00;;;2.50;;
20144;SDS011;10233;50.814;6.590;2023-12-20T01:09:07;2.77;;;1.77;;
20144;SDS011;10233;50.814;6.590;2023-12-20T01:10:07;3.58;;;1.90;;
20144;SDS011;10233;50.814;6.590;2023-12-20T01:11:08;6.63;;;2.15;;
20144;SDS011;10233;50.814;6.590;2023-12-20T01:12:09;3.83;;;1.70;;
20144;SDS011;10233;50.814;6.590;2023-12-20T01:13:09;5.13;;;2.90;;
20144;SDS011;10233;50.814;6.590;2023-12-20T01:14:09;7.20;;;2.23;;
20144;SDS011;10233;50.814;6.590;2023-12-20T01:15:10;5.43;;;2.57;;
20144;SDS011;10233;50.814;6.590;2023-12-20T01:16:11;5.13;;;2.80;;
20144;SDS011;10233;50.814;6.590;2023-12-20T01:17:12;4.85;;;2.42;;
20144;SDS011;10233;50.814;6.590;2023-12-20T01:18:13;4.15;;;2.35;;
20144;SDS011;10233;50.814;6.590;2023-12-20T01:19:13;8.35;;;2.28;;
20144;SDS011;10233;50.814;6.590;2023-12-20T01:20:14;4.45;;;2.25;;
20144;SDS011;10233;50.814;6.590;2023-12-20T01:21:15;4.07;;;2.43;;
20144;SDS011;10233;50.814;6.590;2023-12-20T01:22:15;4.13;;;2.03;;
20144;SDS011;10233;50.814;6.590;2023-12-20T01:23:16;5.13;;;2.33;;
20144;SDS011;10233;50.814;6.590;2023-12-20T01:24:18;5.10;;;2.35;;
20144;SDS011;10233;50.814;6.590;2023-12-20T01:25:18;4.70;;;2.40;;
20144;SDS011;10233;50.814;6.590;2023-12-20T01:26:19;6.17;;;2.57;;
20144;SDS011;10233;50.814;6.590;2023-12-20T01:27:19;7.07;;;2.10;;
20144;SDS011;10233;50.814;6.590;2023-12-20T01:28:19;5.50;;;2.50;;
20144;SDS011;10233;50.814;6.590;2023-12-20T01:29:20;4.05;;;1.98;;
20144;SDS011;10233;50.814;6.590;2023-12-20T01:30:20;2.73;;;1.73;;
20144;SDS011;10233;50.814;6.590;2023-12-20T01:31:21;5.72;;;2.00;;
20144;SDS011;10233;50.814;6.590;2023-12-20T01:32:21;2.93;;;1.50;;
20144;SDS011;10233;50.814;6.590;2023-12-20T01:33:22;4.50;;;1.80;;
20144;SDS011;10233;50.814;6.590;2023-12-20T01:34:22;5.93;;;1.90;;
20144;SDS011;10233;50.814;6.590;2023-12-20T01:35:23;2.30;;;1.55;;
20144;SDS011;10233;50.814;6.590;2023-12-20T01:36:23;3.47;;;1.60;;
20144;SDS011;10233;50.814;6.590;2023-12-20T01:37:24;5.43;;;1.80;;
20144;SDS011;10233;50.814;6.590;2023-12-20T01:38:25;4.65;;;1.63;;
20144;SDS011;10233;50.814;6.590;2023-12-20T01:39:26;2.85;;;1.20;;
20144;SDS011;10233;50.814;6.590;2023-12-20T01:40:26;3.43;;;0.93;;
20144;SDS011;10233;50.814;6.590;2023-12-20T01:41:27;1.23;;;0.82;;
20144;SDS011;10233;50.814;6.590;2023-12-20T01:42:27;5.57;;;1.40;;
20144;SDS011;10233;50.814;6.590;2023-12-20T01:43:28;1.30;;;0.80;;
20144;SDS011;10233;50.814;6.590;2023-12-20T01:44:29;6.57;;;1.42;;
20144;SDS011;10233;50.814;6.590;2023-12-20T01:45:29;5.68;;;1.27;;
20144;SDS011;10233;50.814;6.590;2023-12-20T01:46:30;1.40;;;0.70;;
20144;SDS011;10233;50.814;6.590;2023-12-20T01:47:30;1.70;;;0.95;;
20144;SDS011;10233;50.814;6.590;2023-12-20T01:48:31;2.50;;;1.00;;
20144;SDS011;10233;50.814;6.590;2023-12-20T01:49:35;2.00;;;1.73;;
20144;SDS011;10233;50.814;6.590;2023-12-20T01:50:36;1.77;;;0.73;;
20144;SDS011;10233;50.814;6.590;2023-12-20T01:51:38;6.55;;;0.90;;
20144;SDS011;10233;50.814;6.590;2023-12-20T01:52:38;2.10;;;0.95;;
20144;SDS011;10233;50.814;6.590;2023-12-20T01:53:39;2.17;;;0.87;;
20144;SDS011;10233;50.814;6.590;2023-12-20T01:54:41;3.27;;;1.37;;
20144;SDS011;10233;50.814;6.590;2023-12-20T01:55:42;1.45;;;1.02;;
20144;SDS011;10233;50.814;6.590;2023-12-20T01:56:44;4.43;;;1.33;;
20144;SDS011;10233;50.814;6.590;2023-12-20T01:57:45;5.00;;;1.25;;
20144;SDS011;10233;50.814;6.590;2023-12-20T01:58:47;2.05;;;0.75;;
20144;SDS011;10233;50.814;6.590;2023-12-20T01:59:48;1.98;;;0.73;;
20144;SDS011;10233;50.814;6.590;2023-12-20T02:00:49;5.20;;;1.20;;
20144;SDS011;10233;50.814;6.590;2023-12-20T02:01:50;3.50;;;0.80;;
20144;SDS011;10233;50.814;6.590;2023-12-20T02:02:50;5.90;;;1.00;;
20144;SDS011;10233;50.814;6.590;2023-12-20T02:03:53;4.90;;;0.80;;
20144;SDS011;10233;50.814;6.590;2023-12-20T02:04:55;4.05;;;1.05;;
20144;SDS011;10233;50.814;6.590;2023-12-20T02:05:56;4.25;;;0.90;;
20144;SDS011;10233;50.814;6.590;2023-12-20T02:06:57;5.23;;;0.80;;
20144;SDS011;10233;50.814;6.590;2023-12-20T02:07:58;5.20;;;0.90;;
20144;SDS011;10233;50.814;6.590;2023-12-20T02:08:59;3.42;;;1.10;;
20144;SDS011;10233;50.814;6.590;2023-12-20T02:10:00;1.92;;;0.77;;
20144;SDS011;10233;50.814;6.590;2023-12-20T02:11:01;2.25;;;0.70;;
20144;SDS011;10233;50.814;6.590;2023-12-20T02:12:02;3.10;;;1.33;;
20144;SDS011;10233;50.814;6.590;2023-12-20T02:13:03;1.25;;;0.60;;
20144;SDS011;10233;50.814;6.590;2023-12-20T02:14:04;1.65;;;0.73;;
20144;SDS011;10233;50.814;6.590;2023-12-20T02:15:05;0.98;;;0.60;;
20144;SDS011;10233;50.814;6.590;2023-12-20T02:16:06;4.40;;;0.93;;
20144;SDS011;10233;50.814;6.590;2023-12-20T02:17:07;3.42;;;0.63;;
20144;SDS011;10233;50.814;6.590;2023-12-20T02:18:08;3.25;;;0.70;;
20144;SDS011;10233;50.814;6.590;2023-12-20T02:19:10;3.27;;;0.97;;
20144;SDS011;10233;50.814;6.590;2023-12-20T02:20:14;2.05;;;0.77;;
20144;SDS011;10233;50.814;6.590;2023-12-20T02:21:14;4.35;;;0.95;;
20144;SDS011;10233;50.814;6.590;2023-12-20T02:22:15;1.40;;;0.60;;
20144;SDS011;10233;50.814;6.590;2023-12-20T02:23:15;2.50;;;0.70;;
20144;SDS011;10233;50.814;6.590;2023-12-20T02:24:16;1.27;;;0.60;;
20144;SDS011;10233;50.814;6.590;2023-12-20T02:25:17;3.90;;;0.50;;
20144;SDS011;10233;50.814;6.590;2023-12-20T02:26:18;3.97;;;1.17;;
20144;SDS011;10233;50.814;6.590;2023-12-20T02:27:18;6.85;;;0.60;;
20144;SDS011;10233;50.814;6.590;2023-12-20T02:28:19;2.00;;;0.63;;
20144;SDS011;10233;50.814;6.590;2023-12-20T02:29:21;2.70;;;0.65;;
20144;SDS011;10233;50.814;6.590;2023-12-20T02:30:22;1.60;;;0.40;;
20144;SDS011;10233;50.814;6.590;2023-12-20T02:31:23;2.90;;;0.55;;
20144;SDS011;10233;50.814;6.590;2023-12-20T02:32:24;0.82;;;0.57;;
20144;SDS011;10233;50.814;6.590;2023-12-20T02:33:28;1.45;;;0.52;;
20144;SDS011;10233;50.814;6.590;2023-12-20T02:34:29;3.50;;;0.73;;
20144;SDS011;10233;50.814;6.590;2023-12-20T02:35:29;4.53;;;0.70;;
20144;SDS011;10233;50.814;6.590;2023-12-20T02:36:30;3.07;;;0.53;;
20144;SDS011;10233;50.814;6.590;2023-12-20T02:37:30;0.88;;;0.60;;
20144;SDS011;10233;50.814;6.590;2023-12-20T02:38:31;2.93;;;0.97;;
20144;SDS011;10233;50.814;6.590;2023-12-20T02:39:31;4.35;;;0.85;;
20144;SDS011;10233;50.814;6.590;2023-12-20T02:40:33;3.92;;;1.35;;
20144;SDS011;10233;50.814;6.590;2023-12-20T02:41:33;0.60;;;0.47;;
20144;SDS011;10233;50.814;6.590;2023-12-20T02:42:34;1.50;;;0.65;;
20144;SDS011;10233;50.814;6.590;2023-12-20T02:43:34;2.90;;;0.50;;
20144;SDS011;10233;50.814;6.590;2023-12-20T02:44:35;3.60;;;0.50;;
20144;SDS011;10233;50.814;6.590;2023-12-20T02:45:36;2.78;;;0.77;;
20144;SDS011;10233;50.814;6.590;2023-12-20T02:46:36;2.50;;;0.40;;
20144;SDS011;10233;50.814;6.590;2023-12-20T02:47:37;3.10;;;1.02;;
20144;SDS011;10233;50.814;6.590;2023-12-20T02:48:37;4.00;;;1.00;;
20144;SDS011;10233;50.814;6.590;2023-12-20T02:49:38;2.33;;;0.57;;
20144;SDS011;10233;50.814;6.590;2023-12-20T02:50:38;4.90;;;0.87;;
20144;SDS011;10233;50.814;6.590;2023-12-20T02:51:39;1.83;;;0.50;;
20144;SDS011;10233;50.814;6.590;2023-12-20T02:52:39;2.97;;;0.67;;
20144;SDS011;10233;50.814;6.590;2023-12-20T02:53:40;4.80;;;1.05;;
20144;SDS011;10233;50.814;6.590;2023-12-20T02:54:40;11.20;;;1.60;;
20144;SDS011;10233;50.814;6.590;2023-12-20T02:55:40;2.45;;;0.55;;
20144;SDS011;10233;50.814;6.590;2023-12-20T02:56:41;3.60;;;0.90;;
20144;SDS011;10233;50.814;6.590;2023-12-20T02:57:41;3.53;;;0.93;;
20144;SDS011;10233;50.814;6.590;2023-12-20T02:58:42;4.60;;;0.70;;
20144;SDS011;10233;50.814;6.590;2023-12-20T02:59:43;2.75;;;1.20;;
20144;SDS011;10233;50.814;6.590;2023-12-20T03:00:43;1.93;;;0.83;;
20144;SDS011;10233;50.814;6.590;2023-12-20T03:01:44;1.02;;;0.57;;
20144;SDS011;10233;50.814;6.590;2023-12-20T03:02:45;0.90;;;0.40;;
20144;SDS011;10233;50.814;6.590;2023-12-20T03:03:46;5.53;;;0.90;;
20144;SDS011;10233;50.814;6.590;2023-12-20T03:04:46;9.02;;;1.08;;
20144;SDS011;10233;50.814;6.590;2023-12-20T03:05:47;6.23;;;0.87;;
20144;SDS011;10233;50.814;6.590;2023-12-20T03:06:47;4.22;;;1.55;;
20144;SDS011;10233;50.814;6.590;2023-12-20T03:07:48;4.43;;;0.93;;
20144;SDS011;10233;50.814;6.590;2023-12-20T03:08:48;1.80;;;0.98;;
20144;SDS011;10233;50.814;6.590;2023-12-20T03:09:49;6.10;;;1.60;;
20144;SDS011;10233;50.814;6.590;2023-12-20T03:10:49;5.30;;;1.00;;
20144;SDS011;10233;50.814;6.590;2023-12-20T03:11:50;6.83;;;0.97;;
20144;SDS011;10233;50.814;6.590;2023-12-20T03:12:50;2.95;;;0.98;;
20144;SDS011;10233;50.814;6.590;2023-12-20T03:13:51;1.83;;;1.00;;
20144;SDS011;10233;50.814;6.590;2023-12-20T03:14:51;3.07;;;0.90;;
20144;SDS011;10233;50.814;6.590;2023-12-20T03:15:51;0.83;;;0.70;;
20144;SDS011;10233;50.814;6.590;2023-12-20T03:16:52;3.80;;;0.90;;
20144;SDS011;10233;50.814;6.590;2023-12-20T03:17:52;6.38;;;1.08;;
20144;SDS011;10233;50.814;6.590;2023-12-20T03:18:53;6.80;;;0.70;;
20144;SDS011;10233;50.814;6.590;2023-12-20T03:19:53;10.23;;;1.20;;
20144;SDS011;10233;50.814;6.590;2023-12-20T03:20:54;2.60;;;0.90;;
20144;SDS011;10233;50.814;6.590;2023-12-20T03:21:54;1.17;;;0.77;;
20144;SDS011;10233;50.814;6.590;2023-12-20T03:22:55;1.83;;;0.90;;
20144;SDS011;10233;50.814;6.590;2023-12-20T03:23:55;1.98;;;0.80;;
20144;SDS011;10233;50.814;6.590;2023-12-20T03:24:56;4.70;;;1.20;;
20144;SDS011;10233;50.814;6.590;2023-12-20T03:25:57;1.73;;;1.45;;
20144;SDS011;10233;50.814;6.590;2023-12-20T03:26:58;5.40;;;0.93;;
20144;SDS011;10233;50.814;6.590;2023-12-20T03:27:59;2.70;;;1.00;;
20144;SDS011;10233;50.814;6.590;2023-12-20T03:28:59;5.28;;;1.60;;
20144;SDS011;10233;50.814;6.590;2023-12-20T03:29:59;4.70;;;1.13;;
20144;SDS011;10233;50.814;6.590;2023-12-20T03:31:00;4.80;;;1.15;;
20144;SDS011;10233;50.814;6.590;2023-12-20T03:32:02;7.75;;;1.17;;
20144;SDS011;10233;50.814;6.590;2023-12-20T03:33:03;0.77;;;0.77;;
20144;SDS011;10233;50.814;6.590;2023-12-20T03:34:03;3.33;;;0.93;;
20144;SDS011;10233;50.814;6.590;2023-12-20T03:35:04;4.20;;;1.10;;
20144;SDS011;10233;50.814;6.590;2023-12-20T03:36:04;3.63;;;1.73;;
20144;SDS011;10233;50.814;6.590;2023-12-20T03:37:05;1.05;;;0.77;;
20144;SDS011;10233;50.814;6.590;2023-12-20T03:38:06;4.82;;;1.00;;
20144;SDS011;10233;50.814;6.590;2023-12-20T03:39:06;2.33;;;0.83;;
20144;SDS011;10233;50.814;6.590;2023-12-20T03:40:07;2.50;;;0.90;;
20144;SDS011;10233;50.814;6.590;2023-12-20T03:41:07;7.68;;;1.13;;
20144;SDS011;10233;50.814;6.590;2023-12-20T03:42:08;7.53;;;1.53;;
20144;SDS011;10233;50.814;6.590;2023-12-20T03:43:08;6.90;;;1.20;;
20144;SDS011;10233;50.814;6.590;2023-12-20T03:44:09;2.60;;;0.80;;
20144;SDS011;10233;50.814;6.590;2023-12-20T03:45:09;6.75;;;1.40;;
20144;SDS011;10233;50.814;6.590;2023-12-20T03:46:10;7.17;;;1.10;;
20144;SDS011;10233;50.814;6.590;2023-12-20T03:47:10;4.10;;;0.93;;
20144;SDS011;10233;50.814;6.590;2023-12-20T03:48:11;2.45;;;1.00;;
20144;SDS011;10233;50.814;6.590;2023-12-20T03:49:12;3.57;;;1.37;;
20144;SDS011;10233;50.814;6.590;2023-12-20T03:50:12;5.75;;;1.23;;
20144;SDS011;10233;50.814;6.590;2023-12-20T03:51:13;4.87;;;1.20;;
20144;SDS011;10233;50.814;6.590;2023-12-20T03:52:13;3.33;;;1.10;;
20144;SDS011;10233;50.814;6.590;2023-12-20T03:53:14;3.03;;;1.63;;
20144;SDS011;10233;50.814;6.590;2023-12-20T03:54:14;5.28;;;1.35;;
20144;SDS011;10233;50.814;6.590;2023-12-20T03:55:15;2.47;;;0.93;;
20144;SDS011;10233;50.814;6.590;2023-12-20T03:56:15;8.93;;;1.73;;
20144;SDS011;10233;50.814;6.590;2023-12-20T03:57:16;6.83;;;1.53;;
20144;SDS011;10233;50.814;6.590;2023-12-20T03:58:16;2.45;;;1.52;;
20144;SDS011;10233;50.814;6.590;2023-12-20T03:59:16;1.73;;;0.70;;
20144;SDS011;10233;50.814;6.590;2023-12-20T04:00:18;4.00;;;1.33;;
20144;SDS011;10233;50.814;6.590;2023-12-20T04:01:18;3.55;;;2.05;;
20144;SDS011;10233;50.814;6.590;2023-12-20T04:02:18;3.80;;;1.33;;
20144;SDS011;10233;50.814;6.590;2023-12-20T04:03:19;5.00;;;2.15;;
20144;SDS011;10233;50.814;6.590;2023-12-20T04:04:19;6.47;;;1.53;;
20144;SDS011;10233;50.814;6.590;2023-12-20T04:05:20;2.63;;;0.93;;
20144;SDS011;10233;50.814;6.590;2023-12-20T04:06:20;6.00;;;1.20;;
20144;SDS011;10233;50.814;6.590;2023-12-20T04:07:21;5.43;;;1.15;;
20144;SDS011;10233;50.814;6.590;2023-12-20T04:08:21;1.90;;;0.87;;
20144;SDS011;10233;50.814;6.590;2023-12-20T04:09:22;3.15;;;0.98;;
20144;SDS011;10233;50.814;6.590;2023-12-20T04:10:22;6.13;;;1.17;;
20144;SDS011;10233;50.814;6.590;2023-12-20T04:11:22;5.03;;;1.23;;
20144;SDS011;10233;50.814;6.590;2023-12-20T04:12:23;7.80;;;1.80;;
20144;SDS011;10233;50.814;6.590;2023-12-20T04:13:23;8.10;;;1.52;;
20144;SDS011;10233;50.814;6.590;2023-12-20T04:14:24;8.17;;;0.97;;
20144;SDS011;10233;50.814;6.590;2023-12-20T04:15:25;2.10;;;1.10;;
20144;SDS011;10233;50.814;6.590;2023-12-20T04:16:25;2.77;;;1.07;;
20144;SDS011;10233;50.814;6.590;2023-12-20T04:17:33;4.22;;;1.38;;
20144;SDS011;10233;50.814;6.590;2023-12-20T04:18:33;5.90;;;1.10;;
20144;SDS011;10233;50.814;6.590;2023-12-20T04:19:39;1.00;;;0.90;;
20144;SDS011;10233;50.814;6.590;2023-12-20T04:20:40;4.95;;;1.17;;
20144;SDS011;10233;50.814;6.590;2023-12-20T04:21:43;3.08;;;1.20;;
20144;SDS011;10233;50.814;6.590;2023-12-20T04:22:47;5.40;;;0.95;;
20144;SDS011;10233;50.814;6.590;2023-12-20T04:23:50;7.30;;;1.92;;
20144;SDS011;10233;50.814;6.590;2023-12-20T04:24:51;3.85;;;1.77;;
20144;SDS011;10233;50.814;6.590;2023-12-20T04:25:51;4.38;;;1.25;;
20144;SDS011;10233;50.814;6.590;2023-12-20T04:26:52;5.80;;;1.37;;
20144;SDS011;10233;50.814;6.590;2023-12-20T04:27:52;6.93;;;1.75;;
20144;SDS011;10233;50.814;6.590;2023-12-20T04:28:52;8.30;;;1.53;;
20144;SDS011;10233;50.814;6.590;2023-12-20T04:29:53;6.78;;;1.30;;
20144;SDS011;10233;50.814;6.590;2023-12-20T04:30:53;8.73;;;1.57;;
20144;SDS011;10233;50.814;6.590;2023-12-20T04:31:54;3.90;;;1.17;;
20144;SDS011;10233;50.814;6.590;2023-12-20T04:32:54;2.42;;;1.40;;
20144;SDS011;10233;50.814;6.590;2023-12-20T04:33:55;5.00;;;1.20;;
20144;SDS011;10233;50.814;6.590;2023-12-20T04:34:55;7.60;;;1.73;;
20144;SDS011;10233;50.814;6.590;2023-12-20T04:35:56;5.10;;;1.87;;
20144;SDS011;10233;50.814;6.590;2023-12-20T04:36:57;4.47;;;0.90;;
20144;SDS011;10233;50.814;6.590;2023-12-20T04:37:58;3.90;;;1.23;;
20144;SDS011;10233;50.814;6.590;2023-12-20T04:38:58;9.17;;;1.07;;
20144;SDS011;10233;50.814;6.590;2023-12-20T04:39:59;4.30;;;1.20;;
20144;SDS011;10233;50.814;6.590;2023-12-20T04:41:00;4.10;;;1.20;;
20144;SDS011;10233;50.814;6.590;2023-12-20T04:42:00;9.23;;;1.40;;
20144;SDS011;10233;50.814;6.590;2023-12-20T04:43:01;3.67;;;0.75;;
20144;SDS011;10233;50.814;6.590;2023-12-20T04:44:01;8.63;;;0.97;;
20144;SDS011;10233;50.814;6.590;2023-12-20T04:45:02;10.85;;;1.92;;
20144;SDS011;10233;50.814;6.590;2023-12-20T04:46:03;5.30;;;1.33;;
20144;SDS011;10233;50.814;6.590;2023-12-20T04:47:03;4.53;;;1.43;;
20144;SDS011;10233;50.814;6.590;2023-12-20T04:48:04;3.92;;;1.33;;
20144;SDS011;10233;50.814;6.590;2023-12-20T04:49:05;6.68;;;1.63;;
20144;SDS011;10233;50.814;6.590;2023-12-20T04:50:05;9.23;;;1.60;;
20144;SDS011;10233;50.814;6.590;2023-12-20T04:51:06;2.40;;;1.38;;
20144;SDS011;10233;50.814;6.590;2023-12-20T04:52:07;5.97;;;1.50;;
20144;SDS011;10233;50.814;6.590;2023-12-20T04:53:07;2.85;;;1.13;;
20144;SDS011;10233;50.814;6.590;2023-12-20T04:54:08;4.80;;;1.07;;
20144;SDS011;10233;50.814;6.590;2023-12-20T04:55:09;2.60;;;1.70;;
20144;SDS011;10233;50.814;6.590;2023-12-20T04:56:09;5.10;;;1.70;;
20144;SDS011;10233;50.814;6.590;2023-12-20T04:57:10;3.70;;;1.30;;
20144;SDS011;10233;50.814;6.590;2023-12-20T04:58:10;6.75;;;1.88;;
20144;SDS011;10233;50.814;6.590;2023-12-20T04:59:11;7.70;;;1.63;;
20144;SDS011;10233;50.814;6.590;2023-12-20T05:00:12;4.67;;;1.17;;
20144;SDS011;10233;50.814;6.590;2023-12-20T05:01:14;4.68;;;1.20;;
20144;SDS011;10233;50.814;6.590;2023-12-20T05:02:15;4.70;;;1.10;;
20144;SDS011;10233;50.814;6.590;2023-12-20T05:03:15;3.37;;;1.33;;
20144;SDS011;10233;50.814;6.590;2023-12-20T05:04:16;6.87;;;1.60;;
20144;SDS011;10233;50.814;6.590;2023-12-20T05:05:16;2.72;;;0.80;;
20144;SDS011;10233;50.814;6.590;2023-12-20T05:06:18;1.38;;;0.73;;
20144;SDS011;10233;50.814;6.590;2023-12-20T05:07:18;3.20;;;1.15;;
20144;SDS011;10233;50.814;6.590;2023-12-20T05:08:18;5.43;;;1.50;;
20144;SDS011;10233;50.814;6.590;2023-12-20T05:09:19;4.00;;;0.93;;
20144;SDS011;10233;50.814;6.590;2023-12-20T05:10:20;7.18;;;1.45;;
20144;SDS011;10233;50.814;6.590;2023-12-20T05:11:20;2.00;;;1.50;;
20144;SDS011;10233;50.814;6.590;2023-12-20T05:12:21;4.93;;;0.80;;
20144;SDS011;10233;50.814;6.590;2023-12-20T05:13:21;2.57;;;0.80;;
20144;SDS011;10233;50.814;6.590;2023-12-20T05:14:22;5.40;;;1.67;;
20144;SDS011;10233;50.814;6.590;2023-12-20T05:15:22;10.10;;;1.57;;
20144;SDS011;10233;50.814;6.590;2023-12-20T05:16:23;8.52;;;1.95;;
20144;SDS011;10233;50.814;6.590;2023-12-20T05:17:23;3.33;;;1.27;;
20144;SDS011;10233;50.814;6.590;2023-12-20T05:18:23;8.98;;;1.20;;
20144;SDS011;10233;50.814;6.590;2023-12-20T05:19:24;5.10;;;1.03;;
20144;SDS011;10233;50.814;6.590;2023-12-20T05:20:25;4.05;;;1.80;;
20144;SDS011;10233;50.814;6.590;2023-12-20T05:21:25;7.50;;;1.10;;
20144;SDS011;10233;50.814;6.590;2023-12-20T05:22:25;7.82;;;2.08;;
20144;SDS011;10233;50.814;6.590;2023-12-20T05:23:27;7.60;;;1.05;;
20144;SDS011;10233;50.814;6.590;2023-12-20T05:24:28;7.70;;;1.30;;
20144;SDS011;10233;50.814;6.590;2023-12-20T05:25:30;3.00;;;1.35;;
20144;SDS011;10233;50.814;6.590;2023-12-20T05:26:30;9.35;;;1.90;;
20144;SDS011;10233;50.814;6.590;2023-12-20T05:27:31;4.30;;;0.93;;
20144;SDS011;10233;50.814;6.590;2023-12-20T05:28:31;8.50;;;1.58;;
20144;SDS011;10233;50.814;6.590;2023-12-20T05:29:32;7.00;;;1.65;;
20144;SDS011;10233;50.814;6.590;2023-12-20T05:30:33;6.13;;;2.05;;
20144;SDS011;10233;50.814;6.590;2023-12-20T05:31:34;7.80;;;1.63;;
20144;SDS011;10233;50.814;6.590;2023-12-20T05:32:34;6.00;;;1.30;;
20144;SDS011;10233;50.814;6.590;2023-12-20T05:33:35;5.75;;;1.85;;
20144;SDS011;10233;50.814;6.590;2023-12-20T05:34:36;2.40;;;0.85;;
20144;SDS011;10233;50.814;6.590;2023-12-20T05:35:36;7.60;;;1.50;;
20144;SDS011;10233;50.814;6.590;2023-12-20T05:36:37;5.53;;;1.40;;
20144;SDS011;10233;50.814;6.590;2023-12-20T05:37:39;5.45;;;2.10;;
20144;SDS011;10233;50.814;6.590;2023-12-20T05:38:39;3.80;;;1.20;;
20144;SDS011;10233;50.814;6.590;2023-12-20T05:39:40;3.28;;;1.27;;
20144;SDS011;10233;50.814;6.590;2023-12-20T05:40:40;5.60;;;0.67;;
20144;SDS011;10233;50.814;6.590;2023-12-20T05:41:40;1.83;;;0.80;;
20144;SDS011;10233;50.814;6.590;2023-12-20T05:42:41;1.90;;;1.10;;
20144;SDS011;10233;50.814;6.590;2023-12-20T05:43:41;8.00;;;1.17;;
20144;SDS011;10233;50.814;6.590;2023-12-20T05:44:42;6.80;;;1.97;;
20144;SDS011;10233;50.814;6.590;2023-12-20T05:45:42;4.67;;;1.87;;
20144;SDS011;10233;50.814;6.590;2023-12-20T05:46:43;6.47;;;1.63;;
20144;SDS011;10233;50.814;6.590;2023-12-20T05:47:43;2.72;;;1.15;;
20144;SDS011;10233;50.814;6.590;2023-12-20T05:48:44;3.53;;;1.03;;
20144;SDS011;10233;50.814;6.590;2023-12-20T05:49:44;4.18;;;1.05;;
20144;SDS011;10233;50.814;6.590;2023-12-20T05:50:45;4.03;;;1.40;;
20144;SDS011;10233;50.814;6.590;2023-12-20T05:51:45;8.95;;;1.88;;
20144;SDS011;10233;50.814;6.590;2023-12-20T05:52:46;2.77;;;1.30;;
20144;SDS011;10233;50.814;6.590;2023-12-20T05:53:46;2.33;;;1.17;;
20144;SDS011;10233;50.814;6.590;2023-12-20T05:54:47;9.67;;;1.17;;
20144;SDS011;10233;50.814;6.590;2023-12-20T05:55:47;5.22;;;1.20;;
20144;SDS011;10233;50.814;6.590;2023-12-20T05:56:48;4.27;;;1.33;;
20144;SDS011;10233;50.814;6.590;2023-12-20T05:57:48;4.23;;;1.43;;
20144;SDS011;10233;50.814;6.590;2023-12-20T05:58:49;2.03;;;1.60;;
20144;SDS011;10233;50.814;6.590;2023-12-20T05:59:49;2.60;;;1.03;;
20144;SDS011;10233;50.814;6.590;2023-12-20T06:00:50;6.97;;;1.87;;
20144;SDS011;10233;50.814;6.590;2023-12-20T06:01:50;2.93;;;1.07;;
20144;SDS011;10233;50.814;6.590;2023-12-20T06:02:50;6.17;;;1.90;;
20144;SDS011;10233;50.814;6.590;2023-12-20T06:03:51;3.53;;;1.20;;
20144;SDS011;10233;50.814;6.590;2023-12-20T06:04:51;6.57;;;2.00;;
20144;SDS011;10233;50.814;6.590;2023-12-20T06:05:52;8.13;;;1.95;;